Time;durP1;ratioP1;P1;durP2;ratioP2;P2;SDS_P1;SDS_P2;PMS_P1;PMS_P2;Temp;Humidity;BMP_temperature;BMP_pressure;BME280_temperature;BME280_humidity;BME280_pressure;Samples;Min_cycle;Max_cycle;Signal;HPM_P1;HPM_P2
2023/07/30 00:09:53;;;;;;;2.90;1.23;;;;;;;;;;21079832;28;20047;-63
2023/07/30 00:19:54;;;;;;;2.20;1.65;;;;;;;;;;21079865;28;20071;-63
2023/07/30 00:29:55;;;;;;;2.47;1.40;;;;;;;;;;21079545;28;20493;-64
2023/07/30 00:39:56;;;;;;;4.10;1.67;;;;;;;;;;21078940;28;20075;-64
2023/07/30 00:49:57;;;;;;;4.28;1.63;;;;;;;;;;21082345;28;20132;-62
2023/07/30 00:59:58;;;;;;;3.78;1.67;;;;;;;;;;21094757;28;20508;-63
2023/07/30 01:10:00;;;;;;;6.47;4.10;;;;;;;;;;21093380;28;20047;-63
2023/07/30 01:20:02;;;;;;;5.03;3.22;;;;;;;;;;21093095;28;20040;-63
2023/07/30 01:30:32;;;;;;;9.90;6.88;;;;;;;;;;21092445;28;20048;-63
2023/07/30 01:40:33;;;;;;;6.63;4.22;;;;;;;;;;21082044;28;20055;-63
2023/07/30 01:50:34;;;;;;;3.67;2.70;;;;;;;;;;21090572;28;20044;-62
2023/07/30 02:00:36;;;;;;;8.38;5.10;;;;;;;;;;21087630;28;20090;-64
2023/07/30 02:10:37;;;;;;;3.00;1.25;;;;;;;;;;21088891;28;20056;-63
2023/07/30 02:20:38;;;;;;;3.40;1.40;;;;;;;;;;21088380;28;20047;-63
2023/07/30 02:30:39;;;;;;;16.58;10.15;;;;;;;;;;21087422;28;20044;-63
2023/07/30 02:40:40;;;;;;;4.43;2.33;;;;;;;;;;21085452;28;20059;-63
2023/07/30 02:50:41;;;;;;;2.05;1.33;;;;;;;;;;21085904;28;20080;-64
2023/07/30 03:00:42;;;;;;;7.35;3.97;;;;;;;;;;21084133;28;20039;-64
2023/07/30 03:10:44;;;;;;;12.00;8.10;;;;;;;;;;21083570;28;20043;-64
2023/07/30 03:20:45;;;;;;;8.30;5.10;;;;;;;;;;21083706;28;20078;-63
2023/07/30 03:30:46;;;;;;;4.50;1.95;;;;;;;;;;21082559;28;20037;-62
2023/07/30 03:40:47;;;;;;;5.05;1.30;;;;;;;;;;21081250;28;20070;-64
2023/07/30 03:50:48;;;;;;;3.85;1.58;;;;;;;;;;21080973;28;20078;-63
2023/07/30 04:00:49;;;;;;;4.60;1.55;;;;;;;;;;21079419;28;20123;-64
2023/07/30 04:10:50;;;;;;;3.63;1.08;;;;;;;;;;21079485;28;20120;-63
2023/07/30 04:20:54;;;;;;;5.55;1.30;;;;;;;;;;21078979;28;20088;-63
2023/07/30 04:30:55;;;;;;;3.90;1.33;;;;;;;;;;21094003;28;20042;-63
2023/07/30 04:41:00;;;;;;;3.38;1.38;;;;;;;;;;21096443;28;20105;-63
2023/07/30 04:51:01;;;;;;;2.55;1.42;;;;;;;;;;21094468;28;20044;-63
2023/07/30 05:01:02;;;;;;;3.00;1.67;;;;;;;;;;21093907;28;20048;-62
2023/07/30 05:11:03;;;;;;;6.40;1.98;;;;;;;;;;21092591;28;20047;-63
2023/07/30 05:21:04;;;;;;;1.65;1.08;;;;;;;;;;21092113;28;20044;-63
2023/07/30 05:31:05;;;;;;;2.90;1.25;;;;;;;;;;21092435;28;20493;-63
2023/07/30 05:41:06;;;;;;;5.90;1.20;;;;;;;;;;21091692;28;20436;-64
2023/07/30 05:51:07;;;;;;;2.78;1.30;;;;;;;;;;21090632;28;20485;-64
2023/07/30 06:01:09;;;;;;;3.85;1.38;;;;;;;;;;21090131;28;20074;-63
2023/07/30 06:11:10;;;;;;;2.55;1.00;;;;;;;;;;21088690;28;20059;-64
2023/07/30 06:21:11;;;;;;;3.80;1.40;;;;;;;;;;21088855;28;20048;-62
2023/07/30 06:31:12;;;;;;;3.08;1.10;;;;;;;;;;21087774;28;20123;-63
2023/07/30 06:41:14;;;;;;;4.55;1.15;;;;;;;;;;21087109;28;20123;-63
2023/07/30 06:51:15;;;;;;;3.20;1.27;;;;;;;;;;21085836;28;20515;-63
2023/07/30 07:01:16;;;;;;;4.38;1.25;;;;;;;;;;21085653;28;20108;-64
2023/07/30 07:11:17;;;;;;;4.22;1.42;;;;;;;;;;21084282;28;20439;-64
2023/07/30 07:21:20;;;;;;;1.88;0.90;;;;;;;;;;21084120;28;20494;-63
2023/07/30 07:31:22;;;;;;;2.95;1.30;;;;;;;;;;21082823;28;20168;-63
2023/07/30 07:41:24;;;;;;;4.18;1.25;;;;;;;;;;21081039;28;20098;-63
2023/07/30 07:51:26;;;;;;;3.03;1.23;;;;;;;;;;21079656;28;20079;-64
2023/07/30 08:01:27;;;;;;;2.50;1.02;;;;;;;;;;21080029;28;20100;-65
2023/07/30 08:11:28;;;;;;;9.45;1.85;;;;;;;;;;21079572;28;20413;-62
2023/07/30 08:21:29;;;;;;;1.65;0.98;;;;;;;;;;21080194;28;20044;-63
2023/07/30 08:31:30;;;;;;;3.65;1.50;;;;;;;;;;21079955;28;20071;-64
2023/07/30 08:41:31;;;;;;;4.10;1.45;;;;;;;;;;21078063;28;20048;-63
2023/07/30 08:51:37;;;;;;;2.42;1.45;;;;;;;;;;21078665;28;20040;-63
2023/07/30 09:01:40;;;;;;;2.08;1.33;;;;;;;;;;21077596;28;20052;-66
2023/07/30 09:11:41;;;;;;;1.73;1.05;;;;;;;;;;21082541;28;20071;-63
2023/07/30 09:21:42;;;;;;;1.55;1.17;;;;;;;;;;21093055;28;20044;-63
2023/07/30 09:31:47;;;;;;;1.83;1.30;;;;;;;;;;21092205;28;20044;-64
2023/07/30 09:41:50;;;;;;;3.22;2.00;;;;;;;;;;21090319;28;20048;-64
2023/07/30 09:51:52;;;;;;;2.38;1.27;;;;;;;;;;21089562;28;20036;-65
2023/07/30 10:01:55;;;;;;;1.77;1.08;;;;;;;;;;21088976;28;20075;-64
2023/07/30 10:11:57;;;;;;;1.67;1.27;;;;;;;;;;21087653;28;20070;-65
2023/07/30 10:21:59;;;;;;;3.17;1.42;;;;;;;;;;21087775;28;20163;-65
2023/07/30 10:32:00;;;;;;;3.22;1.73;;;;;;;;;;21087913;28;20055;-64
2023/07/30 10:42:01;;;;;;;1.95;1.20;;;;;;;;;;21085731;28;20133;-65
2023/07/30 10:52:03;;;;;;;2.97;1.30;;;;;;;;;;21085725;28;20046;-65
2023/07/30 11:02:04;;;;;;;1.67;1.13;;;;;;;;;;21083605;28;20122;-65
2023/07/30 11:12:10;;;;;;;4.53;2.15;;;;;;;;;;21084650;28;20066;-63
2023/07/30 11:22:11;;;;;;;5.70;4.15;;;;;;;;;;21082031;28;20047;-64
2023/07/30 11:32:13;;;;;;;2.80;1.83;;;;;;;;;;21081497;28;20051;-65
2023/07/30 11:42:14;;;;;;;1.65;0.93;;;;;;;;;;21081376;28;20080;-65
2023/07/30 11:52:15;;;;;;;4.35;2.67;;;;;;;;;;21079386;28;20040;-64
2023/07/30 12:02:19;;;;;;;1.20;0.80;;;;;;;;;;21080488;28;20044;-64
2023/07/30 12:12:25;;;;;;;4.13;0.87;;;;;;;;;;21079224;28;20052;-64
2023/07/30 12:22:26;;;;;;;1.67;1.10;;;;;;;;;;21079712;28;20052;-65
2023/07/30 12:32:29;;;;;;;1.38;1.02;;;;;;;;;;21079810;28;20044;-65
2023/07/30 12:42:31;;;;;;;2.55;1.00;;;;;;;;;;21079629;28;20451;-64
2023/07/30 12:52:33;;;;;;;1.60;1.17;;;;;;;;;;21093178;28;20076;-64
2023/07/30 13:02:35;;;;;;;1.48;1.00;;;;;;;;;;21094931;28;20042;-64
2023/07/30 13:12:36;;;;;;;0.90;0.60;;;;;;;;;;21094717;28;20382;-65
2023/07/30 13:22:37;;;;;;;1.55;1.20;;;;;;;;;;21092991;28;20040;-66
2023/07/30 13:32:38;;;;;;;1.23;0.93;;;;;;;;;;21091680;28;20112;-65
2023/07/30 13:42:39;;;;;;;2.08;1.20;;;;;;;;;;21092395;28;20076;-66
2023/07/30 13:52:41;;;;;;;1.58;1.00;;;;;;;;;;21090718;28;20124;-68
2023/07/30 14:02:42;;;;;;;2.58;0.80;;;;;;;;;;21088235;28;20040;-66
2023/07/30 14:12:43;;;;;;;0.90;0.80;;;;;;;;;;21088443;28;20056;-67
2023/07/30 14:22:44;;;;;;;3.53;0.73;;;;;;;;;;21088197;28;20044;-67
2023/07/30 14:32:45;;;;;;;0.90;0.75;;;;;;;;;;21086045;28;20043;-67
2023/07/30 14:42:46;;;;;;;6.88;2.80;;;;;;;;;;21087079;28;20051;-66
2023/07/30 14:52:47;;;;;;;0.95;0.70;;;;;;;;;;21086248;28;20040;-65
2023/07/30 15:02:49;;;;;;;2.15;1.23;;;;;;;;;;21085619;28;20525;-66
2023/07/30 15:12:50;;;;;;;1.23;0.77;;;;;;;;;;21083111;28;20082;-66
2023/07/30 15:22:52;;;;;;;1.95;1.00;;;;;;;;;;21083558;28;20421;-67
2023/07/30 15:32:53;;;;;;;1.90;1.00;;;;;;;;;;21082921;28;20040;-66
2023/07/30 15:42:54;;;;;;;2.30;1.17;;;;;;;;;;21082531;28;20454;-67
2023/07/30 15:52:55;;;;;;;2.08;1.35;;;;;;;;;;21082048;28;20443;-66
2023/07/30 16:02:56;;;;;;;1.67;1.10;;;;;;;;;;21080369;28;20044;-67
2023/07/30 16:12:58;;;;;;;3.20;2.60;;;;;;;;;;21081300;28;20131;-66
2023/07/30 16:22:59;;;;;;;3.25;1.23;;;;;;;;;;21078865;28;20438;-66
2023/07/30 16:33:00;;;;;;;3.20;1.17;;;;;;;;;;21079569;28;20068;-67
2023/07/30 16:43:01;;;;;;;1.90;1.70;;;;;;;;;;21078987;28;20052;-66
2023/07/30 16:53:02;;;;;;;4.50;1.45;;;;;;;;;;21077454;28;20044;-66
2023/07/30 17:03:06;;;;;;;2.05;1.50;;;;;;;;;;21078449;28;20596;-67
2023/07/30 17:13:07;;;;;;;;;;;;;;;;;;21077079;28;20067;-66
2023/07/30 17:23:09;;;;;;;2.67;1.50;;;;;;;;;;21077805;28;19975;-67
2023/07/30 17:33:10;;;;;;;2.95;1.60;;;;;;;;;;21081737;28;20085;-67
2023/07/30 17:43:11;;;;;;;2.53;1.50;;;;;;;;;;21096469;28;20592;-65
2023/07/30 17:53:12;;;;;;;2.40;1.20;;;;;;;;;;21089275;28;20036;-66
2023/07/30 18:03:13;;;;;;;1.98;1.70;;;;;;;;;;21089419;28;20541;-66
2023/07/30 18:13:15;;;;;;;4.35;2.10;;;;;;;;;;21087221;28;20048;-65
2023/07/30 18:23:16;;;;;;;1.98;1.42;;;;;;;;;;21088139;28;20105;-66
2023/07/30 18:33:17;;;;;;;3.83;1.77;;;;;;;;;;21087023;28;20048;-66
2023/07/30 18:43:19;;;;;;;1.75;1.20;;;;;;;;;;21085621;28;20481;-66
2023/07/30 18:53:21;;;;;;;1.52;1.15;;;;;;;;;;21084500;28;20157;-66
2023/07/30 19:03:23;;;;;;;1.70;1.33;;;;;;;;;;21083551;28;20059;-64
2023/07/30 19:13:24;;;;;;;3.92;1.73;;;;;;;;;;21083057;28;20559;-66
2023/07/30 19:23:25;;;;;;;5.85;1.80;;;;;;;;;;21081955;28;20044;-66
2023/07/30 19:33:26;;;;;;;3.25;2.28;;;;;;;;;;21080952;28;20048;-66
2023/07/30 19:43:30;;;;;;;4.18;2.05;;;;;;;;;;21080861;28;20409;-66
2023/07/30 19:53:32;;;;;;;3.03;1.90;;;;;;;;;;21079868;28;20338;-66
2023/07/30 20:03:33;;;;;;;4.90;2.25;;;;;;;;;;21078872;28;20075;-66
2023/07/30 20:13:34;;;;;;;3.35;2.30;;;;;;;;;;21078962;28;20441;-66
2023/07/30 20:23:35;;;;;;;4.85;3.50;;;;;;;;;;21078493;28;20136;-67
2023/07/30 20:33:36;;;;;;;4.57;3.10;;;;;;;;;;21078797;28;20044;-68
2023/07/30 20:43:41;;;;;;;3.15;1.80;;;;;;;;;;21077885;28;20044;-66
2023/07/30 20:53:42;;;;;;;2.95;1.90;;;;;;;;;;21078992;28;20052;-66
2023/07/30 21:03:43;;;;;;;4.40;2.78;;;;;;;;;;21078393;28;20089;-67
2023/07/30 21:13:44;;;;;;;2.72;1.70;;;;;;;;;;21092522;28;20059;-67
2023/07/30 21:23:45;;;;;;;6.22;2.50;;;;;;;;;;21093490;28;20040;-66
2023/07/30 21:33:46;;;;;;;7.22;4.90;;;;;;;;;;21092777;28;20055;-65
2023/07/30 21:43:48;;;;;;;3.92;2.90;;;;;;;;;;21091939;28;20090;-66
2023/07/30 21:53:49;;;;;;;3.25;2.30;;;;;;;;;;21090751;28;20127;-67
2023/07/30 22:03:50;;;;;;;6.03;2.65;;;;;;;;;;21089960;28;20099;-66
2023/07/30 22:13:51;;;;;;;4.53;2.45;;;;;;;;;;21089076;28;20048;-66
2023/07/30 22:23:52;;;;;;;2.60;2.00;;;;;;;;;;21087470;28;20044;-67
2023/07/30 22:33:53;;;;;;;5.80;3.78;;;;;;;;;;21087674;28;20051;-66
2023/07/30 22:43:56;;;;;;;3.72;2.10;;;;;;;;;;21087102;28;20051;-66
2023/07/30 22:53:57;;;;;;;4.88;1.67;;;;;;;;;;21086211;28;20044;-66
2023/07/30 23:03:58;;;;;;;2.28;1.50;;;;;;;;;;21085132;28;20046;-66
2023/07/30 23:13:59;;;;;;;4.03;1.40;;;;;;;;;;21083440;28;20505;-66
2023/07/30 23:24:01;;;;;;;1.90;1.55;;;;;;;;;;21082708;28;20036;-66
2023/07/30 23:34:02;;;;;;;2.15;1.38;;;;;;;;;;21081463;28;20050;-66
2023/07/30 23:44:03;;;;;;;2.88;1.70;;;;;;;;;;21081044;28;20048;-66
2023/07/30 23:54:05;;;;;;;3.03;2.00;;;;;;;;;;21081724;28;20048;-65
